sensor_id;sensor_type;location;lat;lon;timestamp;temperature;humidity
31733;DHT22;18312;51.486;7.144;2022-11-14T00:02:23;3.60;99.90
31733;DHT22;18312;51.486;7.144;2022-11-14T00:04:52;3.50;99.90
31733;DHT22;18312;51.486;7.144;2022-11-14T00:07:20;3.50;99.90
31733;DHT22;18312;51.486;7.144;2022-11-14T00:09:46;3.40;99.90
31733;DHT22;18312;51.486;7.144;2022-11-14T00:12:13;3.30;99.90
31733;DHT22;18312;51.486;7.144;2022-11-14T00:14:40;3.30;99.90
31733;DHT22;18312;51.486;7.144;2022-11-14T00:17:07;3.30;99.90
31733;DHT22;18312;51.486;7.144;2022-11-14T00:19:34;3.30;99.90
31733;DHT22;18312;51.486;7.144;2022-11-14T00:22:06;3.30;99.90
31733;DHT22;18312;51.486;7.144;2022-11-14T00:24:33;3.40;99.90
31733;DHT22;18312;51.486;7.144;2022-11-14T00:27:00;3.30;99.90
31733;DHT22;18312;51.486;7.144;2022-11-14T00:29:29;3.50;99.90
31733;DHT22;18312;51.486;7.144;2022-11-14T00:31:56;3.50;99.90
31733;DHT22;18312;51.486;7.144;2022-11-14T00:34:33;3.50;99.90
31733;DHT22;18312;51.486;7.144;2022-11-14T00:37:00;3.50;99.90
31733;DHT22;18312;51.486;7.144;2022-11-14T00:39:29;3.60;99.90
31733;DHT22;18312;51.486;7.144;2022-11-14T00:41:56;3.70;99.90
31733;DHT22;18312;51.486;7.144;2022-11-14T00:44:23;3.70;99.90
31733;DHT22;18312;51.486;7.144;2022-11-14T00:46:50;3.60;99.90
31733;DHT22;18312;51.486;7.144;2022-11-14T00:49:18;3.60;99.90
31733;DHT22;18312;51.486;7.144;2022-11-14T00:51:45;3.50;99.90
31733;DHT22;18312;51.486;7.144;2022-11-14T00:54:12;3.40;99.90
31733;DHT22;18312;51.486;7.144;2022-11-14T00:56:40;3.20;99.90
31733;DHT22;18312;51.486;7.144;2022-11-14T00:59:07;3.10;99.90
31733;DHT22;18312;51.486;7.144;2022-11-14T01:01:34;2.90;99.90
31733;DHT22;18312;51.486;7.144;2022-11-14T01:04:01;2.80;99.90
31733;DHT22;18312;51.486;7.144;2022-11-14T01:06:28;2.80;99.90
31733;DHT22;18312;51.486;7.144;2022-11-14T01:08:55;2.80;99.90
31733;DHT22;18312;51.486;7.144;2022-11-14T01:11:23;2.60;99.90
31733;DHT22;18312;51.486;7.144;2022-11-14T01:13:54;2.50;99.90
31733;DHT22;18312;51.486;7.144;2022-11-14T01:16:21;2.40;99.90
31733;DHT22;18312;51.486;7.144;2022-11-14T01:18:51;2.40;99.90
31733;DHT22;18312;51.486;7.144;2022-11-14T01:21:18;2.40;99.90
31733;DHT22;18312;51.486;7.144;2022-11-14T01:23:45;2.70;99.90
31733;DHT22;18312;51.486;7.144;2022-11-14T01:26:13;3.00;99.90
31733;DHT22;18312;51.486;7.144;2022-11-14T01:28:40;3.20;99.90
31733;DHT22;18312;51.486;7.144;2022-11-14T01:31:10;3.50;99.90
31733;DHT22;18312;51.486;7.144;2022-11-14T01:33:41;3.50;99.90
31733;DHT22;18312;51.486;7.144;2022-11-14T01:36:13;3.80;99.90
31733;DHT22;18312;51.486;7.144;2022-11-14T01:38:41;3.80;99.90
31733;DHT22;18312;51.486;7.144;2022-11-14T01:41:08;3.80;99.90
31733;DHT22;18312;51.486;7.144;2022-11-14T01:43:38;3.80;99.90
31733;DHT22;18312;51.486;7.144;2022-11-14T01:46:13;3.90;99.90
31733;DHT22;18312;51.486;7.144;2022-11-14T01:48:43;3.90;99.90
31733;DHT22;18312;51.486;7.144;2022-11-14T01:51:23;3.90;99.90
31733;DHT22;18312;51.486;7.144;2022-11-14T01:53:54;4.00;99.90
31733;DHT22;18312;51.486;7.144;2022-11-14T01:56:24;4.10;99.90
31733;DHT22;18312;51.486;7.144;2022-11-14T01:58:55;4.10;99.90
31733;DHT22;18312;51.486;7.144;2022-11-14T02:01:23;4.10;99.90
31733;DHT22;18312;51.486;7.144;2022-11-14T02:03:52;4.20;99.90
31733;DHT22;18312;51.486;7.144;2022-11-14T02:06:23;4.20;99.90
31733;DHT22;18312;51.486;7.144;2022-11-14T02:08:50;4.10;99.90
31733;DHT22;18312;51.486;7.144;2022-11-14T02:11:17;4.10;99.90
31733;DHT22;18312;51.486;7.144;2022-11-14T02:13:44;4.00;99.90
31733;DHT22;18312;51.486;7.144;2022-11-14T02:16:11;3.90;99.90
31733;DHT22;18312;51.486;7.144;2022-11-14T02:18:39;3.90;99.90
31733;DHT22;18312;51.486;7.144;2022-11-14T02:21:08;3.80;99.90
31733;DHT22;18312;51.486;7.144;2022-11-14T02:23:35;3.80;99.90
31733;DHT22;18312;51.486;7.144;2022-11-14T02:26:06;3.80;99.90
31733;DHT22;18312;51.486;7.144;2022-11-14T02:28:33;3.70;99.90
31733;DHT22;18312;51.486;7.144;2022-11-14T02:31:00;3.40;99.90
31733;DHT22;18312;51.486;7.144;2022-11-14T02:33:27;3.20;99.90
31733;DHT22;18312;51.486;7.144;2022-11-14T02:35:54;2.90;99.90
31733;DHT22;18312;51.486;7.144;2022-11-14T02:38:22;2.80;99.90
31733;DHT22;18312;51.486;7.144;2022-11-14T02:40:49;2.60;99.90
31733;DHT22;18312;51.486;7.144;2022-11-14T02:43:16;2.60;99.90
31733;DHT22;18312;51.486;7.144;2022-11-14T02:45:43;2.50;99.90
31733;DHT22;18312;51.486;7.144;2022-11-14T02:48:10;2.50;99.90
31733;DHT22;18312;51.486;7.144;2022-11-14T02:50:36;2.60;99.90
31733;DHT22;18312;51.486;7.144;2022-11-14T02:53:03;2.50;99.90
31733;DHT22;18312;51.486;7.144;2022-11-14T02:55:31;2.40;99.90
31733;DHT22;18312;51.486;7.144;2022-11-14T02:57:59;2.40;99.90
31733;DHT22;18312;51.486;7.144;2022-11-14T03:00:26;2.40;99.90
31733;DHT22;18312;51.486;7.144;2022-11-14T03:02:53;2.30;99.90
31733;DHT22;18312;51.486;7.144;2022-11-14T03:05:20;2.30;99.90
31733;DHT22;18312;51.486;7.144;2022-11-14T03:07:47;2.40;99.90
31733;DHT22;18312;51.486;7.144;2022-11-14T03:10:14;2.30;99.90
31733;DHT22;18312;51.486;7.144;2022-11-14T03:12:42;2.30;99.90
31733;DHT22;18312;51.486;7.144;2022-11-14T03:15:09;2.20;99.90
31733;DHT22;18312;51.486;7.144;2022-11-14T03:17:36;2.20;99.90
31733;DHT22;18312;51.486;7.144;2022-11-14T03:20:04;2.10;99.90
31733;DHT22;18312;51.486;7.144;2022-11-14T03:22:31;2.10;99.90
31733;DHT22;18312;51.486;7.144;2022-11-14T03:24:58;2.10;99.90
31733;DHT22;18312;51.486;7.144;2022-11-14T03:27:24;2.10;99.90
31733;DHT22;18312;51.486;7.144;2022-11-14T03:29:53;2.10;99.90
31733;DHT22;18312;51.486;7.144;2022-11-14T03:32:19;2.00;99.90
31733;DHT22;18312;51.486;7.144;2022-11-14T03:34:46;2.00;99.90
31733;DHT22;18312;51.486;7.144;2022-11-14T03:37:13;1.90;99.90
31733;DHT22;18312;51.486;7.144;2022-11-14T03:39:40;1.70;99.90
31733;DHT22;18312;51.486;7.144;2022-11-14T03:42:07;1.70;99.90
31733;DHT22;18312;51.486;7.144;2022-11-14T03:44:34;1.70;99.90
31733;DHT22;18312;51.486;7.144;2022-11-14T03:47:02;1.60;99.90
31733;DHT22;18312;51.486;7.144;2022-11-14T03:49:28;1.80;99.90
31733;DHT22;18312;51.486;7.144;2022-11-14T03:51:55;1.70;99.90
31733;DHT22;18312;51.486;7.144;2022-11-14T03:54:22;1.90;99.90
31733;DHT22;18312;51.486;7.144;2022-11-14T03:56:49;1.90;99.90
31733;DHT22;18312;51.486;7.144;2022-11-14T03:59:15;1.90;99.90
31733;DHT22;18312;51.486;7.144;2022-11-14T04:01:42;2.00;99.90
31733;DHT22;18312;51.486;7.144;2022-11-14T04:04:11;2.10;99.90
31733;DHT22;18312;51.486;7.144;2022-11-14T04:06:38;1.90;99.90
31733;DHT22;18312;51.486;7.144;2022-11-14T04:09:05;1.80;99.90
31733;DHT22;18312;51.486;7.144;2022-11-14T04:11:32;1.80;99.90
31733;DHT22;18312;51.486;7.144;2022-11-14T04:13:59;1.70;99.90
31733;DHT22;18312;51.486;7.144;2022-11-14T04:16:25;1.60;99.90
31733;DHT22;18312;51.486;7.144;2022-11-14T04:18:52;1.60;99.90
31733;DHT22;18312;51.486;7.144;2022-11-14T04:21:20;1.50;99.90
31733;DHT22;18312;51.486;7.144;2022-11-14T04:23:47;1.50;99.90
31733;DHT22;18312;51.486;7.144;2022-11-14T04:26:14;1.50;99.90
31733;DHT22;18312;51.486;7.144;2022-11-14T04:28:40;1.60;99.90
31733;DHT22;18312;51.486;7.144;2022-11-14T04:31:07;1.60;99.90
31733;DHT22;18312;51.486;7.144;2022-11-14T04:33:34;1.60;99.90
31733;DHT22;18312;51.486;7.144;2022-11-14T04:36:00;1.60;99.90
31733;DHT22;18312;51.486;7.144;2022-11-14T04:38:29;1.60;99.90
31733;DHT22;18312;51.486;7.144;2022-11-14T04:40:55;1.60;99.90
31733;DHT22;18312;51.486;7.144;2022-11-14T04:43:22;1.40;99.90
31733;DHT22;18312;51.486;7.144;2022-11-14T04:45:49;1.40;99.90
31733;DHT22;18312;51.486;7.144;2022-11-14T04:48:15;1.40;99.90
31733;DHT22;18312;51.486;7.144;2022-11-14T04:50:44;1.30;99.90
31733;DHT22;18312;51.486;7.144;2022-11-14T04:53:10;1.40;99.90
31733;DHT22;18312;51.486;7.144;2022-11-14T04:55:38;1.40;99.90
31733;DHT22;18312;51.486;7.144;2022-11-14T04:58:05;1.40;99.90
31733;DHT22;18312;51.486;7.144;2022-11-14T05:00:32;1.40;99.90
31733;DHT22;18312;51.486;7.144;2022-11-14T05:02:59;1.40;99.90
31733;DHT22;18312;51.486;7.144;2022-11-14T05:05:25;1.40;99.90
31733;DHT22;18312;51.486;7.144;2022-11-14T05:07:53;1.30;99.90
31733;DHT22;18312;51.486;7.144;2022-11-14T05:10:20;1.20;99.90
31733;DHT22;18312;51.486;7.144;2022-11-14T05:12:51;1.20;99.90
31733;DHT22;18312;51.486;7.144;2022-11-14T05:15:18;1.10;99.90
31733;DHT22;18312;51.486;7.144;2022-11-14T05:17:45;1.00;99.90
31733;DHT22;18312;51.486;7.144;2022-11-14T05:20:12;0.90;99.90
31733;DHT22;18312;51.486;7.144;2022-11-14T05:22:38;0.90;99.90
31733;DHT22;18312;51.486;7.144;2022-11-14T05:25:06;0.90;99.90
31733;DHT22;18312;51.486;7.144;2022-11-14T05:27:33;0.90;99.90
31733;DHT22;18312;51.486;7.144;2022-11-14T05:30:01;1.00;99.90
31733;DHT22;18312;51.486;7.144;2022-11-14T05:32:28;1.20;99.90
31733;DHT22;18312;51.486;7.144;2022-11-14T05:34:55;1.40;99.90
31733;DHT22;18312;51.486;7.144;2022-11-14T05:37:21;1.40;99.90
31733;DHT22;18312;51.486;7.144;2022-11-14T05:39:48;1.60;99.90
31733;DHT22;18312;51.486;7.144;2022-11-14T05:42:15;1.70;99.90
31733;DHT22;18312;51.486;7.144;2022-11-14T05:44:41;1.80;99.90
31733;DHT22;18312;51.486;7.144;2022-11-14T05:47:10;1.90;99.90
31733;DHT22;18312;51.486;7.144;2022-11-14T05:49:36;2.00;99.90
31733;DHT22;18312;51.486;7.144;2022-11-14T05:52:03;1.90;99.90
31733;DHT22;18312;51.486;7.144;2022-11-14T05:54:30;1.90;99.90
31733;DHT22;18312;51.486;7.144;2022-11-14T05:56:57;2.00;99.90
31733;DHT22;18312;51.486;7.144;2022-11-14T05:59:23;1.90;99.90
31733;DHT22;18312;51.486;7.144;2022-11-14T06:01:50;1.90;99.90
31733;DHT22;18312;51.486;7.144;2022-11-14T06:04:18;2.00;99.90
31733;DHT22;18312;51.486;7.144;2022-11-14T06:06:45;2.00;99.90
31733;DHT22;18312;51.486;7.144;2022-11-14T06:09:11;2.00;99.90
31733;DHT22;18312;51.486;7.144;2022-11-14T06:11:38;2.00;99.90
31733;DHT22;18312;51.486;7.144;2022-11-14T06:14:05;2.20;99.90
31733;DHT22;18312;51.486;7.144;2022-11-14T06:16:32;2.30;99.90
31733;DHT22;18312;51.486;7.144;2022-11-14T06:18:59;2.90;99.90
31733;DHT22;18312;51.486;7.144;2022-11-14T06:21:27;3.60;99.90
31733;DHT22;18312;51.486;7.144;2022-11-14T06:23:53;4.10;99.90
31733;DHT22;18312;51.486;7.144;2022-11-14T06:26:22;4.30;99.90
31733;DHT22;18312;51.486;7.144;2022-11-14T06:28:49;4.90;99.90
31733;DHT22;18312;51.486;7.144;2022-11-14T06:31:17;5.10;99.90
31733;DHT22;18312;51.486;7.144;2022-11-14T06:33:45;5.30;99.90
31733;DHT22;18312;51.486;7.144;2022-11-14T06:36:12;5.40;99.90
31733;DHT22;18312;51.486;7.144;2022-11-14T06:38:41;5.50;99.90
31733;DHT22;18312;51.486;7.144;2022-11-14T06:41:09;5.90;99.90
31733;DHT22;18312;51.486;7.144;2022-11-14T06:43:39;6.30;99.90
31733;DHT22;18312;51.486;7.144;2022-11-14T06:46:07;6.90;99.90
31733;DHT22;18312;51.486;7.144;2022-11-14T06:48:34;6.90;99.90
31733;DHT22;18312;51.486;7.144;2022-11-14T06:51:02;6.90;99.90
31733;DHT22;18312;51.486;7.144;2022-11-14T06:53:30;6.80;99.90
31733;DHT22;18312;51.486;7.144;2022-11-14T06:56:00;7.20;99.90
31733;DHT22;18312;51.486;7.144;2022-11-14T06:58:28;7.30;99.90
31733;DHT22;18312;51.486;7.144;2022-11-14T07:00:55;7.40;99.90
31733;DHT22;18312;51.486;7.144;2022-11-14T07:03:22;7.30;99.90
31733;DHT22;18312;51.486;7.144;2022-11-14T07:05:49;7.20;99.90
31733;DHT22;18312;51.486;7.144;2022-11-14T07:08:16;7.00;99.90
31733;DHT22;18312;51.486;7.144;2022-11-14T07:10:43;7.10;99.90
31733;DHT22;18312;51.486;7.144;2022-11-14T07:13:11;7.30;99.90
31733;DHT22;18312;51.486;7.144;2022-11-14T07:15:37;7.20;99.90
31733;DHT22;18312;51.486;7.144;2022-11-14T07:18:04;7.30;99.90
31733;DHT22;18312;51.486;7.144;2022-11-14T07:20:31;7.30;99.90
31733;DHT22;18312;51.486;7.144;2022-11-14T07:22:58;7.20;99.90
31733;DHT22;18312;51.486;7.144;2022-11-14T07:25:24;7.20;99.90
31733;DHT22;18312;51.486;7.144;2022-11-14T07:27:51;7.60;99.90
31733;DHT22;18312;51.486;7.144;2022-11-14T07:30:19;7.60;99.90
31733;DHT22;18312;51.486;7.144;2022-11-14T07:32:46;7.70;99.90
31733;DHT22;18312;51.486;7.144;2022-11-14T07:35:19;7.70;99.90
31733;DHT22;18312;51.486;7.144;2022-11-14T07:37:46;7.70;99.90
31733;DHT22;18312;51.486;7.144;2022-11-14T07:40:13;7.60;99.90
31733;DHT22;18312;51.486;7.144;2022-11-14T07:42:40;7.60;99.90
31733;DHT22;18312;51.486;7.144;2022-11-14T07:45:08;7.50;99.90
31733;DHT22;18312;51.486;7.144;2022-11-14T07:47:36;7.50;99.90
31733;DHT22;18312;51.486;7.144;2022-11-14T07:50:03;7.40;99.90
31733;DHT22;18312;51.486;7.144;2022-11-14T07:52:30;7.40;99.90
31733;DHT22;18312;51.486;7.144;2022-11-14T07:54:57;7.40;99.90
31733;DHT22;18312;51.486;7.144;2022-11-14T07:57:24;7.30;99.90
31733;DHT22;18312;51.486;7.144;2022-11-14T07:59:51;7.30;99.90
31733;DHT22;18312;51.486;7.144;2022-11-14T08:02:18;7.40;99.90
31733;DHT22;18312;51.486;7.144;2022-11-14T08:04:46;7.60;99.90
31733;DHT22;18312;51.486;7.144;2022-11-14T08:07:12;7.80;99.90
31733;DHT22;18312;51.486;7.144;2022-11-14T08:09:39;7.80;99.90
31733;DHT22;18312;51.486;7.144;2022-11-14T08:12:06;7.70;99.90
31733;DHT22;18312;51.486;7.144;2022-11-14T08:14:33;7.70;99.90
31733;DHT22;18312;51.486;7.144;2022-11-14T08:16:59;7.60;99.90
31733;DHT22;18312;51.486;7.144;2022-11-14T08:19:26;7.60;99.90
31733;DHT22;18312;51.486;7.144;2022-11-14T08:21:54;7.70;99.90
31733;DHT22;18312;51.486;7.144;2022-11-14T08:24:21;7.70;99.90
31733;DHT22;18312;51.486;7.144;2022-11-14T08:26:47;7.60;99.90
31733;DHT22;18312;51.486;7.144;2022-11-14T08:29:14;7.80;99.90
31733;DHT22;18312;51.486;7.144;2022-11-14T08:31:41;7.80;99.90
31733;DHT22;18312;51.486;7.144;2022-11-14T08:34:07;7.90;99.90
31733;DHT22;18312;51.486;7.144;2022-11-14T08:36:34;7.90;99.90
31733;DHT22;18312;51.486;7.144;2022-11-14T08:39:02;8.00;99.90
31733;DHT22;18312;51.486;7.144;2022-11-14T08:41:29;7.90;99.90
31733;DHT22;18312;51.486;7.144;2022-11-14T08:43:56;7.90;99.90
31733;DHT22;18312;51.486;7.144;2022-11-14T08:46:22;7.80;99.90
31733;DHT22;18312;51.486;7.144;2022-11-14T08:48:49;7.90;99.90
31733;DHT22;18312;51.486;7.144;2022-11-14T08:51:16;7.90;99.90
31733;DHT22;18312;51.486;7.144;2022-11-14T08:53:43;7.90;99.90
31733;DHT22;18312;51.486;7.144;2022-11-14T08:56:11;8.00;99.90
31733;DHT22;18312;51.486;7.144;2022-11-14T08:58:37;8.10;99.90
31733;DHT22;18312;51.486;7.144;2022-11-14T09:01:05;8.10;99.90
31733;DHT22;18312;51.486;7.144;2022-11-14T09:03:32;8.10;99.90
31733;DHT22;18312;51.486;7.144;2022-11-14T09:06:00;8.10;99.90
31733;DHT22;18312;51.486;7.144;2022-11-14T09:08:28;8.10;99.90
31733;DHT22;18312;51.486;7.144;2022-11-14T09:10:55;8.20;99.90
31733;DHT22;18312;51.486;7.144;2022-11-14T09:13:26;8.20;99.90
31733;DHT22;18312;51.486;7.144;2022-11-14T09:15:52;8.20;99.90
31733;DHT22;18312;51.486;7.144;2022-11-14T09:18:19;8.30;99.90
31733;DHT22;18312;51.486;7.144;2022-11-14T09:20:46;8.30;99.90
31733;DHT22;18312;51.486;7.144;2022-11-14T09:23:13;8.50;99.90
31733;DHT22;18312;51.486;7.144;2022-11-14T09:25:39;8.60;99.90
31733;DHT22;18312;51.486;7.144;2022-11-14T09:28:07;8.70;99.90
31733;DHT22;18312;51.486;7.144;2022-11-14T09:30:44;8.80;99.90
31733;DHT22;18312;51.486;7.144;2022-11-14T09:36:41;8.70;99.90
31733;DHT22;18312;51.486;7.144;2022-11-14T09:39:08;8.70;99.90
31733;DHT22;18312;51.486;7.144;2022-11-14T09:41:44;8.70;99.90
31733;DHT22;18312;51.486;7.144;2022-11-14T09:44:40;8.80;99.90
31733;DHT22;18312;51.486;7.144;2022-11-14T09:47:13;8.80;99.90
31733;DHT22;18312;51.486;7.144;2022-11-14T09:49:42;8.90;99.90
31733;DHT22;18312;51.486;7.144;2022-11-14T09:52:17;9.00;99.90
31733;DHT22;18312;51.486;7.144;2022-11-14T09:54:48;9.00;99.90
31733;DHT22;18312;51.486;7.144;2022-11-14T09:57:19;9.00;99.90
31733;DHT22;18312;51.486;7.144;2022-11-14T09:59:46;9.00;99.90
31733;DHT22;18312;51.486;7.144;2022-11-14T10:02:23;9.10;99.90
31733;DHT22;18312;51.486;7.144;2022-11-14T10:05:01;9.10;99.90
31733;DHT22;18312;51.486;7.144;2022-11-14T10:07:38;9.00;99.90
31733;DHT22;18312;51.486;7.144;2022-11-14T10:10:20;9.00;99.90
31733;DHT22;18312;51.486;7.144;2022-11-14T10:12:57;8.80;99.90
31733;DHT22;18312;51.486;7.144;2022-11-14T10:15:30;8.80;99.90
31733;DHT22;18312;51.486;7.144;2022-11-14T10:18:11;8.80;99.90
31733;DHT22;18312;51.486;7.144;2022-11-14T10:20:40;8.80;99.90
31733;DHT22;18312;51.486;7.144;2022-11-14T10:23:32;8.90;99.90
31733;DHT22;18312;51.486;7.144;2022-11-14T10:26:09;9.00;99.90
31733;DHT22;18312;51.486;7.144;2022-11-14T10:28:51;9.00;99.90
31733;DHT22;18312;51.486;7.144;2022-11-14T10:31:27;9.00;99.90
31733;DHT22;18312;51.486;7.144;2022-11-14T10:34:03;9.00;99.90
31733;DHT22;18312;51.486;7.144;2022-11-14T10:36:48;8.90;99.90
31733;DHT22;18312;51.486;7.144;2022-11-14T10:39:21;9.10;99.90
31733;DHT22;18312;51.486;7.144;2022-11-14T10:41:52;9.00;99.90
31733;DHT22;18312;51.486;7.144;2022-11-14T10:44:30;9.00;99.90
31733;DHT22;18312;51.486;7.144;2022-11-14T10:47:01;9.10;99.90
31733;DHT22;18312;51.486;7.144;2022-11-14T10:49:31;9.10;99.90
31733;DHT22;18312;51.486;7.144;2022-11-14T10:52:02;9.20;99.90
31733;DHT22;18312;51.486;7.144;2022-11-14T10:54:33;9.20;99.90
31733;DHT22;18312;51.486;7.144;2022-11-14T10:57:02;9.30;99.90
31733;DHT22;18312;51.486;7.144;2022-11-14T10:59:29;9.20;99.90
31733;DHT22;18312;51.486;7.144;2022-11-14T11:01:56;9.20;99.90
31733;DHT22;18312;51.486;7.144;2022-11-14T11:04:26;9.10;99.90
31733;DHT22;18312;51.486;7.144;2022-11-14T11:06:55;9.10;99.90
31733;DHT22;18312;51.486;7.144;2022-11-14T11:09:24;9.10;99.90
31733;DHT22;18312;51.486;7.144;2022-11-14T11:12:14;9.10;99.90
31733;DHT22;18312;51.486;7.144;2022-11-14T11:14:42;9.20;99.90
31733;DHT22;18312;51.486;7.144;2022-11-14T11:17:18;9.10;99.90
31733;DHT22;18312;51.486;7.144;2022-11-14T11:19:45;9.20;99.90
31733;DHT22;18312;51.486;7.144;2022-11-14T11:22:29;9.20;99.90
31733;DHT22;18312;51.486;7.144;2022-11-14T11:24:56;9.40;99.90
31733;DHT22;18312;51.486;7.144;2022-11-14T11:27:25;9.20;99.90
31733;DHT22;18312;51.486;7.144;2022-11-14T11:30:17;9.40;99.90
31733;DHT22;18312;51.486;7.144;2022-11-14T11:32:44;9.60;99.90
31733;DHT22;18312;51.486;7.144;2022-11-14T11:35:13;9.70;99.90
31733;DHT22;18312;51.486;7.144;2022-11-14T11:37:44;9.70;99.90
31733;DHT22;18312;51.486;7.144;2022-11-14T11:40:17;10.00;99.90
31733;DHT22;18312;51.486;7.144;2022-11-14T11:42:48;10.10;99.90
31733;DHT22;18312;51.486;7.144;2022-11-14T11:45:18;9.90;99.90
31733;DHT22;18312;51.486;7.144;2022-11-14T11:47:51;10.10;99.90
31733;DHT22;18312;51.486;7.144;2022-11-14T11:50:19;10.30;99.90
31733;DHT22;18312;51.486;7.144;2022-11-14T11:52:58;10.40;99.90
31733;DHT22;18312;51.486;7.144;2022-11-14T11:55:29;10.40;99.90
31733;DHT22;18312;51.486;7.144;2022-11-14T11:58:01;10.40;99.90
31733;DHT22;18312;51.486;7.144;2022-11-14T12:00:31;10.40;99.90
31733;DHT22;18312;51.486;7.144;2022-11-14T12:02:58;10.30;99.90
31733;DHT22;18312;51.486;7.144;2022-11-14T12:05:30;10.40;99.90
31733;DHT22;18312;51.486;7.144;2022-11-14T12:08:01;10.40;99.90
31733;DHT22;18312;51.486;7.144;2022-11-14T12:10:31;10.40;99.90
31733;DHT22;18312;51.486;7.144;2022-11-14T12:13:06;10.50;99.90
31733;DHT22;18312;51.486;7.144;2022-11-14T12:15:44;10.60;99.90
31733;DHT22;18312;51.486;7.144;2022-11-14T12:18:39;10.50;99.90
31733;DHT22;18312;51.486;7.144;2022-11-14T12:21:23;10.50;99.90
31733;DHT22;18312;51.486;7.144;2022-11-14T12:24:33;10.50;99.90
31733;DHT22;18312;51.486;7.144;2022-11-14T12:27:14;10.50;99.90
31733;DHT22;18312;51.486;7.144;2022-11-14T12:30:00;10.40;99.90
31733;DHT22;18312;51.486;7.144;2022-11-14T12:32:32;10.50;99.90
31733;DHT22;18312;51.486;7.144;2022-11-14T12:35:05;10.50;99.90
31733;DHT22;18312;51.486;7.144;2022-11-14T12:37:34;10.60;99.90
31733;DHT22;18312;51.486;7.144;2022-11-14T12:40:05;10.60;99.90
31733;DHT22;18312;51.486;7.144;2022-11-14T12:42:32;10.70;99.90
31733;DHT22;18312;51.486;7.144;2022-11-14T12:45:00;10.80;99.90
31733;DHT22;18312;51.486;7.144;2022-11-14T12:47:27;10.80;99.90
31733;DHT22;18312;51.486;7.144;2022-11-14T12:49:59;11.00;99.90
31733;DHT22;18312;51.486;7.144;2022-11-14T12:52:44;10.90;99.90
31733;DHT22;18312;51.486;7.144;2022-11-14T12:58:26;10.80;99.90
31733;DHT22;18312;51.486;7.144;2022-11-14T13:01:03;10.80;99.90
31733;DHT22;18312;51.486;7.144;2022-11-14T13:03:42;10.70;99.90
31733;DHT22;18312;51.486;7.144;2022-11-14T13:06:17;10.70;99.90
31733;DHT22;18312;51.486;7.144;2022-11-14T13:09:01;10.60;99.90
31733;DHT22;18312;51.486;7.144;2022-11-14T13:11:35;10.60;99.90
31733;DHT22;18312;51.486;7.144;2022-11-14T13:14:19;10.70;99.90
31733;DHT22;18312;51.486;7.144;2022-11-14T13:17:19;10.80;99.90
31733;DHT22;18312;51.486;7.144;2022-11-14T13:20:25;10.90;99.90
31733;DHT22;18312;51.486;7.144;2022-11-14T13:26:40;10.80;99.90
31733;DHT22;18312;51.486;7.144;2022-11-14T13:29:42;10.80;99.90
31733;DHT22;18312;51.486;7.144;2022-11-14T13:31:55;10.90;99.90
31733;DHT22;18312;51.486;7.144;2022-11-14T13:34:35;10.80;99.90
31733;DHT22;18312;51.486;7.144;2022-11-14T13:37:10;10.90;99.90
31733;DHT22;18312;51.486;7.144;2022-11-14T13:39:48;11.00;99.90
31733;DHT22;18312;51.486;7.144;2022-11-14T13:42:43;11.20;99.90
31733;DHT22;18312;51.486;7.144;2022-11-14T13:45:36;11.10;99.90
31733;DHT22;18312;51.486;7.144;2022-11-14T13:48:35;11.10;99.90
31733;DHT22;18312;51.486;7.144;2022-11-14T13:51:15;11.10;99.90
31733;DHT22;18312;51.486;7.144;2022-11-14T13:53:43;11.00;99.90
31733;DHT22;18312;51.486;7.144;2022-11-14T13:56:19;10.90;99.90
31733;DHT22;18312;51.486;7.144;2022-11-14T13:59:19;10.80;99.90
31733;DHT22;18312;51.486;7.144;2022-11-14T14:02:02;10.90;99.90
31733;DHT22;18312;51.486;7.144;2022-11-14T14:04:44;11.00;99.90
31733;DHT22;18312;51.486;7.144;2022-11-14T14:07:20;11.00;99.90
31733;DHT22;18312;51.486;7.144;2022-11-14T14:09:56;11.00;99.90
31733;DHT22;18312;51.486;7.144;2022-11-14T14:12:49;10.90;99.90
31733;DHT22;18312;51.486;7.144;2022-11-14T14:15:24;10.90;99.90
31733;DHT22;18312;51.486;7.144;2022-11-14T14:17:59;11.00;99.90
31733;DHT22;18312;51.486;7.144;2022-11-14T14:20:35;11.00;99.90
31733;DHT22;18312;51.486;7.144;2022-11-14T14:23:15;11.00;99.90
31733;DHT22;18312;51.486;7.144;2022-11-14T14:25:45;11.00;99.90
31733;DHT22;18312;51.486;7.144;2022-11-14T14:28:19;10.90;99.90
31733;DHT22;18312;51.486;7.144;2022-11-14T14:31:01;10.90;99.90
31733;DHT22;18312;51.486;7.144;2022-11-14T14:33:38;10.90;99.90
31733;DHT22;18312;51.486;7.144;2022-11-14T14:36:16;10.90;99.90
31733;DHT22;18312;51.486;7.144;2022-11-14T14:38:43;10.80;99.90
31733;DHT22;18312;51.486;7.144;2022-11-14T14:41:12;10.80;99.90
31733;DHT22;18312;51.486;7.144;2022-11-14T14:43:41;10.70;99.90
31733;DHT22;18312;51.486;7.144;2022-11-14T14:46:08;10.70;99.90
31733;DHT22;18312;51.486;7.144;2022-11-14T14:48:39;10.70;99.90
31733;DHT22;18312;51.486;7.144;2022-11-14T14:51:13;10.70;99.90
31733;DHT22;18312;51.486;7.144;2022-11-14T14:53:50;10.60;99.90
31733;DHT22;18312;51.486;7.144;2022-11-14T14:56:19;10.60;99.90
31733;DHT22;18312;51.486;7.144;2022-11-14T14:58:46;10.60;99.90
31733;DHT22;18312;51.486;7.144;2022-11-14T15:01:14;10.50;99.90
31733;DHT22;18312;51.486;7.144;2022-11-14T15:03:42;10.50;99.90
31733;DHT22;18312;51.486;7.144;2022-11-14T15:06:26;10.50;99.90
31733;DHT22;18312;51.486;7.144;2022-11-14T15:08:56;10.50;99.90
31733;DHT22;18312;51.486;7.144;2022-11-14T15:11:23;10.50;99.90
31733;DHT22;18312;51.486;7.144;2022-11-14T15:13:53;10.50;99.90
31733;DHT22;18312;51.486;7.144;2022-11-14T15:16:21;10.40;99.90
31733;DHT22;18312;51.486;7.144;2022-11-14T15:18:48;10.40;99.90
31733;DHT22;18312;51.486;7.144;2022-11-14T15:21:24;10.40;99.90
31733;DHT22;18312;51.486;7.144;2022-11-14T15:24:01;10.30;99.90
31733;DHT22;18312;51.486;7.144;2022-11-14T15:26:29;10.20;99.90
31733;DHT22;18312;51.486;7.144;2022-11-14T15:29:07;10.10;99.90
31733;DHT22;18312;51.486;7.144;2022-11-14T15:31:46;10.10;99.90
31733;DHT22;18312;51.486;7.144;2022-11-14T15:34:26;10.10;99.90
31733;DHT22;18312;51.486;7.144;2022-11-14T15:37:21;10.00;99.90
31733;DHT22;18312;51.486;7.144;2022-11-14T15:39:51;10.00;99.90
31733;DHT22;18312;51.486;7.144;2022-11-14T15:42:19;10.00;99.90
31733;DHT22;18312;51.486;7.144;2022-11-14T15:44:52;9.90;99.90
31733;DHT22;18312;51.486;7.144;2022-11-14T15:47:21;9.90;99.90
31733;DHT22;18312;51.486;7.144;2022-11-14T15:49:56;9.90;99.90
31733;DHT22;18312;51.486;7.144;2022-11-14T15:52:30;10.00;99.90
31733;DHT22;18312;51.486;7.144;2022-11-14T15:54:57;9.90;99.90
31733;DHT22;18312;51.486;7.144;2022-11-14T15:57:24;9.90;99.90
31733;DHT22;18312;51.486;7.144;2022-11-14T15:59:51;9.90;99.90
31733;DHT22;18312;51.486;7.144;2022-11-14T16:02:20;9.90;99.90
31733;DHT22;18312;51.486;7.144;2022-11-14T16:04:48;9.90;99.90
31733;DHT22;18312;51.486;7.144;2022-11-14T16:07:16;9.90;99.90
31733;DHT22;18312;51.486;7.144;2022-11-14T16:09:45;9.80;99.90
31733;DHT22;18312;51.486;7.144;2022-11-14T16:12:12;9.80;99.90
31733;DHT22;18312;51.486;7.144;2022-11-14T16:14:39;9.80;99.90